メインページ
METAR-TAF:

METAR-TAF

空港 :

イスラマバード, パキスタン

ベナジル・ブット国際空港

緯度: 33-37N, 経度: 073-06E, 海抜: 507m

現時点の気象観測

当レポートは59分前の20:00(UTC)に作成
無風
気温 21°C
湿度 69%
気圧 1012 hPa
視程10km以上
1,500メートル以下は雲なし、積乱雲なし

METAR: OPRN 292000Z 00000KT CAVOK NSC 21/15 Q1012.2/29.89

時間: 01:59 (20:59 UTC)

予報

当レポートは5時間29分前の15:30(UTC)に作成
予報は29日の 18時(UTC)から 30日の 24時(UTC)まで有効
北/北西の風 10kt
視程: 4000m
煙霧
30日の 03時(UTC)から 30日の 05時(UTC)まで徐々に
西/北西の風 10kt、最大20ktの突風を伴う
視程10km以上
高度4000ftの雲はほとんどない
高度20000ftの雲は散在している
30日の 12時(UTC)から 30日の 15時(UTC)まで徐々に
西/北西の風 10kt
視程: 6000m
高度3000ftの雲はほとんどない, 塔状積雲.
高度4000ftの雲は散在している
高度10000ftの千切れ雲あり
30日の 15時(UTC)から 30日の 24時(UTC)まで一時的に
西/北西の風 10kt、最大25ktの突風を伴う
視程: 4000m
高度3000ftの雲はほとんどない, 積乱雲.
高度4000ftの雲は散在している
高度10000ftの千切れ雲あり
激しい雷雨, 雨

TAF: OPRN 291530Z 2918/3024 33010KT 4000 HZ NSC BECMG 3003/3005 30010G20KT 9999 FEW040 SCT200 BECMG 3012/3015 30010KT 6000 FEW030TCU SCT040 BKN100 TEMPO 3015/3024 30010G25KT 4000 TSRA FEW030CB SCT040 BKN100

4,000以上の空港の気象観測と天気予報(METAR報とTAF報)

利用可能な観測所は地図上に黄色い丸と赤い丸で示す。

丸の上にカーソルを重ねると観測所名を参照できる。

次にクリックすると気象観測と天気予報を参照できる。

マップの切り替え:黒色「×」印の緑ボタンをクリックして拡大、「-」印の緑ボタンをクリックして縮小、緑色の三角印をクリックして隣りの地図に切り替え


METAR-TAF: